sensor_id;sensor_type;location;lat;lon;timestamp;P1;durP1;ratioP1;P2;durP2;ratioP2
46815;SDS011;32787;53.316;8.670;2023-02-28T00:01:20;10.07;;;5.28;;
46815;SDS011;32787;53.316;8.670;2023-02-28T00:03:45;13.20;;;5.25;;
46815;SDS011;32787;53.316;8.670;2023-02-28T00:06:11;9.60;;;5.50;;
46815;SDS011;32787;53.316;8.670;2023-02-28T00:08:37;13.50;;;5.95;;
46815;SDS011;32787;53.316;8.670;2023-02-28T00:11:04;11.30;;;5.70;;
46815;SDS011;32787;53.316;8.670;2023-02-28T00:13:33;16.52;;;6.10;;
46815;SDS011;32787;53.316;8.670;2023-02-28T00:16:03;11.10;;;5.07;;
46815;SDS011;32787;53.316;8.670;2023-02-28T00:18:30;10.30;;;5.53;;
46815;SDS011;32787;53.316;8.670;2023-02-28T00:20:56;10.52;;;5.43;;
46815;SDS011;32787;53.316;8.670;2023-02-28T00:23:22;12.10;;;5.47;;
46815;SDS011;32787;53.316;8.670;2023-02-28T00:25:48;16.17;;;7.70;;
46815;SDS011;32787;53.316;8.670;2023-02-28T00:28:15;16.40;;;8.32;;
46815;SDS011;32787;53.316;8.670;2023-02-28T00:30:40;11.88;;;7.50;;
46815;SDS011;32787;53.316;8.670;2023-02-28T00:33:06;13.15;;;7.78;;
46815;SDS011;32787;53.316;8.670;2023-02-28T00:35:32;11.52;;;6.68;;
46815;SDS011;32787;53.316;8.670;2023-02-28T00:37:57;12.85;;;6.47;;
46815;SDS011;32787;53.316;8.670;2023-02-28T00:40:23;14.68;;;7.30;;
46815;SDS011;32787;53.316;8.670;2023-02-28T00:42:48;10.52;;;5.78;;
46815;SDS011;32787;53.316;8.670;2023-02-28T00:45:14;12.55;;;6.38;;
46815;SDS011;32787;53.316;8.670;2023-02-28T00:47:40;12.90;;;7.05;;
46815;SDS011;32787;53.316;8.670;2023-02-28T00:50:05;11.40;;;6.07;;
46815;SDS011;32787;53.316;8.670;2023-02-28T00:52:32;11.07;;;6.22;;
46815;SDS011;32787;53.316;8.670;2023-02-28T00:54:57;12.90;;;6.85;;
46815;SDS011;32787;53.316;8.670;2023-02-28T00:57:23;13.45;;;7.05;;
46815;SDS011;32787;53.316;8.670;2023-02-28T00:59:48;13.10;;;5.75;;
46815;SDS011;32787;53.316;8.670;2023-02-28T01:02:14;11.65;;;6.30;;
46815;SDS011;32787;53.316;8.670;2023-02-28T01:04:40;11.88;;;6.25;;
46815;SDS011;32787;53.316;8.670;2023-02-28T01:07:06;14.50;;;6.32;;
46815;SDS011;32787;53.316;8.670;2023-02-28T01:09:31;11.25;;;6.20;;
46815;SDS011;32787;53.316;8.670;2023-02-28T01:11:57;11.45;;;6.32;;
46815;SDS011;32787;53.316;8.670;2023-02-28T01:14:23;10.00;;;5.85;;
46815;SDS011;32787;53.316;8.670;2023-02-28T01:16:48;12.07;;;5.88;;
46815;SDS011;32787;53.316;8.670;2023-02-28T01:19:14;12.75;;;6.35;;
46815;SDS011;32787;53.316;8.670;2023-02-28T01:21:40;11.23;;;5.78;;
46815;SDS011;32787;53.316;8.670;2023-02-28T01:24:06;13.02;;;6.47;;
46815;SDS011;32787;53.316;8.670;2023-02-28T01:26:32;8.95;;;4.80;;
46815;SDS011;32787;53.316;8.670;2023-02-28T01:28:58;9.98;;;5.35;;
46815;SDS011;32787;53.316;8.670;2023-02-28T01:31:23;11.82;;;5.75;;
46815;SDS011;32787;53.316;8.670;2023-02-28T01:33:49;11.48;;;5.30;;
46815;SDS011;32787;53.316;8.670;2023-02-28T01:36:16;13.13;;;6.13;;
46815;SDS011;32787;53.316;8.670;2023-02-28T01:38:44;14.73;;;6.93;;
46815;SDS011;32787;53.316;8.670;2023-02-28T01:41:14;13.27;;;6.53;;
46815;SDS011;32787;53.316;8.670;2023-02-28T01:46:08;14.63;;;6.45;;
46815;SDS011;32787;53.316;8.670;2023-02-28T01:48:35;16.58;;;6.55;;
46815;SDS011;32787;53.316;8.670;2023-02-28T01:51:05;13.17;;;6.70;;
46815;SDS011;32787;53.316;8.670;2023-02-28T01:53:37;14.40;;;6.75;;
46815;SDS011;32787;53.316;8.670;2023-02-28T01:56:09;15.23;;;7.22;;
46815;SDS011;32787;53.316;8.670;2023-02-28T01:58:38;15.65;;;6.65;;
46815;SDS011;32787;53.316;8.670;2023-02-28T02:01:04;14.00;;;7.32;;
46815;SDS011;32787;53.316;8.670;2023-02-28T02:03:30;16.05;;;6.95;;
46815;SDS011;32787;53.316;8.670;2023-02-28T02:05:56;12.02;;;6.30;;
46815;SDS011;32787;53.316;8.670;2023-02-28T02:08:23;11.80;;;6.63;;
46815;SDS011;32787;53.316;8.670;2023-02-28T02:10:51;13.00;;;6.57;;
46815;SDS011;32787;53.316;8.670;2023-02-28T02:32:49;15.02;;;6.82;;
46815;SDS011;32787;53.316;8.670;2023-02-28T02:38:38;12.77;;;6.72;;
46815;SDS011;32787;53.316;8.670;2023-02-28T02:44:07;14.32;;;6.50;;
46815;SDS011;32787;53.316;8.670;2023-02-28T02:49:15;10.98;;;5.90;;
46815;SDS011;32787;53.316;8.670;2023-02-28T02:51:47;14.10;;;6.13;;
46815;SDS011;32787;53.316;8.670;2023-02-28T02:54:19;10.85;;;5.47;;
46815;SDS011;32787;53.316;8.670;2023-02-28T02:56:52;10.02;;;5.65;;
46815;SDS011;32787;53.316;8.670;2023-02-28T02:59:20;10.20;;;5.90;;
46815;SDS011;32787;53.316;8.670;2023-02-28T03:01:49;15.68;;;7.30;;
46815;SDS011;32787;53.316;8.670;2023-02-28T03:04:19;14.13;;;5.88;;
46815;SDS011;32787;53.316;8.670;2023-02-28T03:06:47;11.80;;;5.65;;
46815;SDS011;32787;53.316;8.670;2023-02-28T03:09:13;12.18;;;5.90;;
46815;SDS011;32787;53.316;8.670;2023-02-28T03:11:39;10.50;;;5.38;;
46815;SDS011;32787;53.316;8.670;2023-02-28T03:19:33;11.38;;;5.25;;
46815;SDS011;32787;53.316;8.670;2023-02-28T03:22:29;10.15;;;5.30;;
46815;SDS011;32787;53.316;8.670;2023-02-28T03:25:38;12.75;;;6.07;;
46815;SDS011;32787;53.316;8.670;2023-02-28T03:28:16;10.57;;;5.10;;
46815;SDS011;32787;53.316;8.670;2023-02-28T03:36:20;11.23;;;5.43;;
46815;SDS011;32787;53.316;8.670;2023-02-28T03:38:58;12.05;;;5.60;;
46815;SDS011;32787;53.316;8.670;2023-02-28T03:41:32;12.10;;;6.25;;
46815;SDS011;32787;53.316;8.670;2023-02-28T03:46:59;11.55;;;5.50;;
46815;SDS011;32787;53.316;8.670;2023-02-28T03:53:01;10.20;;;5.47;;
46815;SDS011;32787;53.316;8.670;2023-02-28T03:55:34;11.65;;;5.18;;
46815;SDS011;32787;53.316;8.670;2023-02-28T04:01:31;21.45;;;9.70;;
46815;SDS011;32787;53.316;8.670;2023-02-28T04:04:02;13.30;;;6.43;;
46815;SDS011;32787;53.316;8.670;2023-02-28T04:06:29;11.93;;;5.93;;
46815;SDS011;32787;53.316;8.670;2023-02-28T04:08:57;11.65;;;5.32;;
46815;SDS011;32787;53.316;8.670;2023-02-28T04:11:24;10.85;;;5.18;;
46815;SDS011;32787;53.316;8.670;2023-02-28T04:14:07;13.93;;;6.50;;
46815;SDS011;32787;53.316;8.670;2023-02-28T04:16:35;11.57;;;5.78;;
46815;SDS011;32787;53.316;8.670;2023-02-28T04:19:03;11.73;;;5.95;;
46815;SDS011;32787;53.316;8.670;2023-02-28T04:21:40;13.40;;;6.78;;
46815;SDS011;32787;53.316;8.670;2023-02-28T04:24:11;18.73;;;7.13;;
46815;SDS011;32787;53.316;8.670;2023-02-28T04:26:39;11.05;;;6.25;;
46815;SDS011;32787;53.316;8.670;2023-02-28T04:29:08;12.57;;;6.05;;
46815;SDS011;32787;53.316;8.670;2023-02-28T04:31:35;13.52;;;5.38;;
46815;SDS011;32787;53.316;8.670;2023-02-28T04:34:01;12.98;;;5.22;;
46815;SDS011;32787;53.316;8.670;2023-02-28T04:36:27;10.63;;;5.20;;
46815;SDS011;32787;53.316;8.670;2023-02-28T04:38:53;16.38;;;5.53;;
46815;SDS011;32787;53.316;8.670;2023-02-28T04:41:19;11.30;;;5.50;;
46815;SDS011;32787;53.316;8.670;2023-02-28T04:43:45;10.48;;;5.47;;
46815;SDS011;32787;53.316;8.670;2023-02-28T04:46:10;10.20;;;5.70;;
46815;SDS011;32787;53.316;8.670;2023-02-28T04:48:37;10.88;;;5.55;;
46815;SDS011;32787;53.316;8.670;2023-02-28T04:51:05;12.82;;;6.13;;
46815;SDS011;32787;53.316;8.670;2023-02-28T04:53:33;11.55;;;5.55;;
46815;SDS011;32787;53.316;8.670;2023-02-28T04:55:59;12.30;;;5.82;;
46815;SDS011;32787;53.316;8.670;2023-02-28T04:58:25;11.77;;;5.97;;
46815;SDS011;32787;53.316;8.670;2023-02-28T05:00:51;12.93;;;6.35;;
46815;SDS011;32787;53.316;8.670;2023-02-28T05:03:18;12.70;;;5.45;;
46815;SDS011;32787;53.316;8.670;2023-02-28T05:05:45;12.68;;;5.75;;
46815;SDS011;32787;53.316;8.670;2023-02-28T05:08:11;13.52;;;6.25;;
46815;SDS011;32787;53.316;8.670;2023-02-28T05:10:37;10.90;;;5.40;;
46815;SDS011;32787;53.316;8.670;2023-02-28T05:13:02;13.43;;;6.05;;
46815;SDS011;32787;53.316;8.670;2023-02-28T05:15:28;11.73;;;5.40;;
46815;SDS011;32787;53.316;8.670;2023-02-28T05:17:54;13.02;;;6.10;;
46815;SDS011;32787;53.316;8.670;2023-02-28T05:20:19;13.95;;;6.65;;
46815;SDS011;32787;53.316;8.670;2023-02-28T05:22:46;10.20;;;5.40;;
46815;SDS011;32787;53.316;8.670;2023-02-28T05:25:12;13.30;;;5.80;;
46815;SDS011;32787;53.316;8.670;2023-02-28T05:27:41;13.20;;;6.32;;
46815;SDS011;32787;53.316;8.670;2023-02-28T05:30:08;11.95;;;6.85;;
46815;SDS011;32787;53.316;8.670;2023-02-28T05:32:36;12.00;;;6.43;;
46815;SDS011;32787;53.316;8.670;2023-02-28T05:35:02;13.93;;;7.82;;
46815;SDS011;32787;53.316;8.670;2023-02-28T05:37:28;12.38;;;6.57;;
46815;SDS011;32787;53.316;8.670;2023-02-28T05:39:54;16.20;;;7.43;;
46815;SDS011;32787;53.316;8.670;2023-02-28T05:42:19;14.18;;;7.80;;
46815;SDS011;32787;53.316;8.670;2023-02-28T05:44:45;14.18;;;7.47;;
46815;SDS011;32787;53.316;8.670;2023-02-28T05:47:11;11.98;;;6.90;;
46815;SDS011;32787;53.316;8.670;2023-02-28T05:49:40;13.70;;;6.30;;
46815;SDS011;32787;53.316;8.670;2023-02-28T05:52:06;15.38;;;6.30;;
46815;SDS011;32787;53.316;8.670;2023-02-28T05:54:32;13.85;;;6.80;;
46815;SDS011;32787;53.316;8.670;2023-02-28T05:56:57;15.88;;;6.80;;
46815;SDS011;32787;53.316;8.670;2023-02-28T05:59:23;13.85;;;7.47;;
46815;SDS011;32787;53.316;8.670;2023-02-28T06:01:48;13.88;;;6.68;;
46815;SDS011;32787;53.316;8.670;2023-02-28T06:04:15;15.27;;;7.07;;
46815;SDS011;32787;53.316;8.670;2023-02-28T06:06:44;12.17;;;6.57;;
46815;SDS011;32787;53.316;8.670;2023-02-28T06:09:10;13.80;;;6.95;;
46815;SDS011;32787;53.316;8.670;2023-02-28T06:11:36;13.25;;;7.15;;
46815;SDS011;32787;53.316;8.670;2023-02-28T06:14:04;13.65;;;7.70;;
46815;SDS011;32787;53.316;8.670;2023-02-28T06:16:30;17.60;;;8.07;;
46815;SDS011;32787;53.316;8.670;2023-02-28T06:18:58;21.85;;;10.55;;
46815;SDS011;32787;53.316;8.670;2023-02-28T06:21:24;18.95;;;9.55;;
46815;SDS011;32787;53.316;8.670;2023-02-28T06:23:52;16.60;;;8.15;;
46815;SDS011;32787;53.316;8.670;2023-02-28T06:26:18;16.27;;;7.95;;
46815;SDS011;32787;53.316;8.670;2023-02-28T06:28:44;15.63;;;8.48;;
46815;SDS011;32787;53.316;8.670;2023-02-28T06:31:11;14.93;;;7.63;;
46815;SDS011;32787;53.316;8.670;2023-02-28T06:33:39;15.32;;;7.20;;
46815;SDS011;32787;53.316;8.670;2023-02-28T06:36:05;18.20;;;8.27;;
46815;SDS011;32787;53.316;8.670;2023-02-28T06:38:32;18.83;;;8.88;;
46815;SDS011;32787;53.316;8.670;2023-02-28T06:40:58;19.20;;;9.82;;
46815;SDS011;32787;53.316;8.670;2023-02-28T06:43:25;22.98;;;10.85;;
46815;SDS011;32787;53.316;8.670;2023-02-28T06:45:56;21.10;;;8.73;;
46815;SDS011;32787;53.316;8.670;2023-02-28T06:48:24;19.90;;;8.13;;
46815;SDS011;32787;53.316;8.670;2023-02-28T06:50:51;16.63;;;7.97;;
46815;SDS011;32787;53.316;8.670;2023-02-28T06:53:17;14.90;;;7.78;;
46815;SDS011;32787;53.316;8.670;2023-02-28T06:55:42;17.60;;;8.25;;
46815;SDS011;32787;53.316;8.670;2023-02-28T06:58:08;18.02;;;8.45;;
46815;SDS011;32787;53.316;8.670;2023-02-28T07:00:41;20.15;;;9.05;;
46815;SDS011;32787;53.316;8.670;2023-02-28T07:03:07;15.57;;;8.82;;
46815;SDS011;32787;53.316;8.670;2023-02-28T07:05:34;16.92;;;8.88;;
46815;SDS011;32787;53.316;8.670;2023-02-28T07:08:00;17.33;;;8.77;;
46815;SDS011;32787;53.316;8.670;2023-02-28T07:10:26;14.20;;;7.68;;
46815;SDS011;32787;53.316;8.670;2023-02-28T07:12:52;16.55;;;8.60;;
46815;SDS011;32787;53.316;8.670;2023-02-28T07:15:17;16.85;;;8.73;;
46815;SDS011;32787;53.316;8.670;2023-02-28T07:17:43;18.42;;;9.30;;
46815;SDS011;32787;53.316;8.670;2023-02-28T07:20:09;19.67;;;9.52;;
46815;SDS011;32787;53.316;8.670;2023-02-28T07:22:35;16.40;;;8.88;;
46815;SDS011;32787;53.316;8.670;2023-02-28T07:25:01;18.88;;;9.02;;
46815;SDS011;32787;53.316;8.670;2023-02-28T07:27:26;17.80;;;9.45;;
46815;SDS011;32787;53.316;8.670;2023-02-28T07:29:52;15.85;;;9.43;;
46815;SDS011;32787;53.316;8.670;2023-02-28T07:32:19;17.08;;;9.30;;
46815;SDS011;32787;53.316;8.670;2023-02-28T07:34:45;20.20;;;9.05;;
46815;SDS011;32787;53.316;8.670;2023-02-28T07:37:11;17.17;;;8.70;;
46815;SDS011;32787;53.316;8.670;2023-02-28T07:39:36;14.13;;;7.55;;
46815;SDS011;32787;53.316;8.670;2023-02-28T07:42:05;16.55;;;8.18;;
46815;SDS011;32787;53.316;8.670;2023-02-28T07:44:34;13.25;;;7.38;;
46815;SDS011;32787;53.316;8.670;2023-02-28T07:47:00;13.95;;;6.53;;
46815;SDS011;32787;53.316;8.670;2023-02-28T07:49:26;12.95;;;6.35;;
46815;SDS011;32787;53.316;8.670;2023-02-28T07:51:51;11.13;;;5.88;;
46815;SDS011;32787;53.316;8.670;2023-02-28T07:54:17;12.13;;;6.47;;
46815;SDS011;32787;53.316;8.670;2023-02-28T07:56:42;11.48;;;6.25;;
46815;SDS011;32787;53.316;8.670;2023-02-28T07:59:08;14.68;;;6.15;;
46815;SDS011;32787;53.316;8.670;2023-02-28T08:01:34;12.18;;;5.95;;
46815;SDS011;32787;53.316;8.670;2023-02-28T08:03:59;12.65;;;5.35;;
46815;SDS011;32787;53.316;8.670;2023-02-28T08:06:25;12.75;;;5.50;;
46815;SDS011;32787;53.316;8.670;2023-02-28T08:08:51;13.63;;;6.05;;
46815;SDS011;32787;53.316;8.670;2023-02-28T08:11:18;12.18;;;5.38;;
46815;SDS011;32787;53.316;8.670;2023-02-28T08:13:44;11.18;;;5.78;;
46815;SDS011;32787;53.316;8.670;2023-02-28T08:16:11;15.25;;;5.68;;
46815;SDS011;32787;53.316;8.670;2023-02-28T08:18:42;9.45;;;4.63;;
46815;SDS011;32787;53.316;8.670;2023-02-28T08:21:08;14.85;;;5.53;;
46815;SDS011;32787;53.316;8.670;2023-02-28T08:23:35;9.65;;;4.55;;
46815;SDS011;32787;53.316;8.670;2023-02-28T08:26:01;12.50;;;4.45;;
46815;SDS011;32787;53.316;8.670;2023-02-28T08:28:27;12.10;;;4.72;;
46815;SDS011;32787;53.316;8.670;2023-02-28T08:30:52;7.85;;;4.40;;
46815;SDS011;32787;53.316;8.670;2023-02-28T08:33:19;11.32;;;4.82;;
46815;SDS011;32787;53.316;8.670;2023-02-28T08:35:45;10.05;;;4.82;;
46815;SDS011;32787;53.316;8.670;2023-02-28T08:38:10;10.15;;;4.75;;
46815;SDS011;32787;53.316;8.670;2023-02-28T08:40:36;11.40;;;4.75;;
46815;SDS011;32787;53.316;8.670;2023-02-28T08:43:01;10.68;;;4.78;;
46815;SDS011;32787;53.316;8.670;2023-02-28T08:45:27;11.43;;;5.15;;
46815;SDS011;32787;53.316;8.670;2023-02-28T08:47:54;9.73;;;4.80;;
46815;SDS011;32787;53.316;8.670;2023-02-28T08:50:20;11.45;;;4.85;;
46815;SDS011;32787;53.316;8.670;2023-02-28T08:52:46;10.73;;;3.80;;
46815;SDS011;32787;53.316;8.670;2023-02-28T08:55:11;6.97;;;3.10;;
46815;SDS011;32787;53.316;8.670;2023-02-28T08:57:37;8.50;;;3.42;;
46815;SDS011;32787;53.316;8.670;2023-02-28T09:00:03;9.85;;;3.28;;
46815;SDS011;32787;53.316;8.670;2023-02-28T09:02:32;7.55;;;2.33;;
46815;SDS011;32787;53.316;8.670;2023-02-28T09:04:58;7.15;;;2.50;;
46815;SDS011;32787;53.316;8.670;2023-02-28T09:07:24;7.32;;;2.72;;
46815;SDS011;32787;53.316;8.670;2023-02-28T09:09:50;7.60;;;2.33;;
46815;SDS011;32787;53.316;8.670;2023-02-28T09:12:26;6.18;;;2.67;;
46815;SDS011;32787;53.316;8.670;2023-02-28T09:14:56;7.60;;;2.35;;
46815;SDS011;32787;53.316;8.670;2023-02-28T09:17:22;7.18;;;2.00;;
46815;SDS011;32787;53.316;8.670;2023-02-28T09:19:48;5.95;;;2.15;;
46815;SDS011;32787;53.316;8.670;2023-02-28T09:22:14;7.60;;;1.80;;
46815;SDS011;32787;53.316;8.670;2023-02-28T09:24:40;7.35;;;1.80;;
46815;SDS011;32787;53.316;8.670;2023-02-28T09:27:05;5.38;;;1.73;;
46815;SDS011;32787;53.316;8.670;2023-02-28T09:29:32;3.88;;;1.60;;
46815;SDS011;32787;53.316;8.670;2023-02-28T09:31:59;6.97;;;1.90;;
46815;SDS011;32787;53.316;8.670;2023-02-28T09:34:25;5.00;;;1.55;;
46815;SDS011;32787;53.316;8.670;2023-02-28T09:36:51;5.70;;;1.83;;
46815;SDS011;32787;53.316;8.670;2023-02-28T09:39:19;4.75;;;1.80;;
46815;SDS011;32787;53.316;8.670;2023-02-28T09:41:47;6.63;;;1.90;;
46815;SDS011;32787;53.316;8.670;2023-02-28T09:44:18;6.07;;;1.73;;
46815;SDS011;32787;53.316;8.670;2023-02-28T09:46:51;5.25;;;1.70;;
46815;SDS011;32787;53.316;8.670;2023-02-28T09:52:05;5.43;;;1.70;;
46815;SDS011;32787;53.316;8.670;2023-02-28T09:54:34;6.43;;;1.70;;
46815;SDS011;32787;53.316;8.670;2023-02-28T09:57:05;4.40;;;1.73;;
46815;SDS011;32787;53.316;8.670;2023-02-28T10:04:56;7.00;;;2.10;;
46815;SDS011;32787;53.316;8.670;2023-02-28T10:10:20;5.43;;;2.20;;
46815;SDS011;32787;53.316;8.670;2023-02-28T10:12:49;6.30;;;1.73;;
46815;SDS011;32787;53.316;8.670;2023-02-28T10:17:47;4.38;;;1.63;;
46815;SDS011;32787;53.316;8.670;2023-02-28T10:20:20;5.07;;;1.88;;
46815;SDS011;32787;53.316;8.670;2023-02-28T10:22:52;7.10;;;2.13;;
46815;SDS011;32787;53.316;8.670;2023-02-28T10:25:32;7.35;;;2.00;;
46815;SDS011;32787;53.316;8.670;2023-02-28T10:28:00;5.90;;;2.25;;
46815;SDS011;32787;53.316;8.670;2023-02-28T10:30:36;5.85;;;1.95;;
46815;SDS011;32787;53.316;8.670;2023-02-28T10:33:03;4.93;;;1.90;;
46815;SDS011;32787;53.316;8.670;2023-02-28T10:35:29;4.18;;;1.70;;
46815;SDS011;32787;53.316;8.670;2023-02-28T10:37:58;9.45;;;2.30;;
46815;SDS011;32787;53.316;8.670;2023-02-28T10:40:29;6.43;;;1.80;;
46815;SDS011;32787;53.316;8.670;2023-02-28T10:43:16;4.63;;;1.70;;
46815;SDS011;32787;53.316;8.670;2023-02-28T10:51:02;5.82;;;2.08;;
46815;SDS011;32787;53.316;8.670;2023-02-28T10:53:31;7.53;;;2.45;;
46815;SDS011;32787;53.316;8.670;2023-02-28T10:56:14;6.28;;;1.98;;
46815;SDS011;32787;53.316;8.670;2023-02-28T11:04:03;8.23;;;2.58;;
46815;SDS011;32787;53.316;8.670;2023-02-28T11:06:42;6.90;;;2.38;;
46815;SDS011;32787;53.316;8.670;2023-02-28T11:11:49;7.13;;;2.50;;
46815;SDS011;32787;53.316;8.670;2023-02-28T11:14:22;8.95;;;2.40;;
46815;SDS011;32787;53.316;8.670;2023-02-28T11:16:50;7.72;;;2.20;;
46815;SDS011;32787;53.316;8.670;2023-02-28T11:19:18;6.32;;;2.22;;
46815;SDS011;32787;53.316;8.670;2023-02-28T11:21:57;6.50;;;2.30;;
46815;SDS011;32787;53.316;8.670;2023-02-28T11:24:40;8.07;;;2.92;;
46815;SDS011;32787;53.316;8.670;2023-02-28T11:29:56;6.28;;;2.05;;
46815;SDS011;32787;53.316;8.670;2023-02-28T11:32:24;8.73;;;2.75;;
46815;SDS011;32787;53.316;8.670;2023-02-28T11:37:34;5.28;;;2.20;;
46815;SDS011;32787;53.316;8.670;2023-02-28T11:40:00;6.95;;;2.40;;
46815;SDS011;32787;53.316;8.670;2023-02-28T11:45:15;6.05;;;2.17;;
46815;SDS011;32787;53.316;8.670;2023-02-28T11:48:43;7.30;;;2.35;;
46815;SDS011;32787;53.316;8.670;2023-02-28T11:53:50;4.57;;;1.85;;
46815;SDS011;32787;53.316;8.670;2023-02-28T12:04:49;5.38;;;1.70;;
46815;SDS011;32787;53.316;8.670;2023-02-28T12:10:24;5.75;;;1.80;;
46815;SDS011;32787;53.316;8.670;2023-02-28T12:20:46;4.00;;;1.70;;
46815;SDS011;32787;53.316;8.670;2023-02-28T12:28:41;3.85;;;1.73;;
46815;SDS011;32787;53.316;8.670;2023-02-28T12:33:52;6.10;;;1.90;;
46815;SDS011;32787;53.316;8.670;2023-02-28T12:36:21;5.53;;;2.03;;
46815;SDS011;32787;53.316;8.670;2023-02-28T12:39:00;5.35;;;1.98;;
46815;SDS011;32787;53.316;8.670;2023-02-28T12:41:39;5.43;;;2.40;;
46815;SDS011;32787;53.316;8.670;2023-02-28T12:44:26;4.95;;;1.92;;
46815;SDS011;32787;53.316;8.670;2023-02-28T12:46:57;6.57;;;1.85;;
46815;SDS011;32787;53.316;8.670;2023-02-28T12:49:28;4.05;;;1.88;;
46815;SDS011;32787;53.316;8.670;2023-02-28T12:52:02;4.85;;;1.90;;
46815;SDS011;32787;53.316;8.670;2023-02-28T12:54:31;5.10;;;1.75;;
46815;SDS011;32787;53.316;8.670;2023-02-28T12:57:32;8.02;;;2.33;;
46815;SDS011;32787;53.316;8.670;2023-02-28T13:00:19;7.30;;;2.05;;
46815;SDS011;32787;53.316;8.670;2023-02-28T13:08:33;5.43;;;1.70;;
46815;SDS011;32787;53.316;8.670;2023-02-28T13:11:24;5.18;;;1.60;;
46815;SDS011;32787;53.316;8.670;2023-02-28T13:16:58;4.88;;;2.08;;
46815;SDS011;32787;53.316;8.670;2023-02-28T13:21:57;7.57;;;2.20;;
46815;SDS011;32787;53.316;8.670;2023-02-28T13:29:31;4.80;;;1.85;;
46815;SDS011;32787;53.316;8.670;2023-02-28T13:39:55;5.13;;;1.67;;
46815;SDS011;32787;53.316;8.670;2023-02-28T13:45:24;5.00;;;2.13;;
46815;SDS011;32787;53.316;8.670;2023-02-28T13:48:01;4.65;;;1.98;;
46815;SDS011;32787;53.316;8.670;2023-02-28T13:50:32;5.43;;;2.10;;
46815;SDS011;32787;53.316;8.670;2023-02-28T13:55:53;5.25;;;2.00;;
46815;SDS011;32787;53.316;8.670;2023-02-28T13:58:55;5.22;;;2.17;;
46815;SDS011;32787;53.316;8.670;2023-02-28T14:01:41;5.18;;;2.00;;
46815;SDS011;32787;53.316;8.670;2023-02-28T14:07:32;5.78;;;2.20;;
46815;SDS011;32787;53.316;8.670;2023-02-28T14:10:06;4.57;;;1.90;;
46815;SDS011;32787;53.316;8.670;2023-02-28T14:18:23;4.70;;;1.83;;
46815;SDS011;32787;53.316;8.670;2023-02-28T14:20:58;5.85;;;2.08;;
46815;SDS011;32787;53.316;8.670;2023-02-28T14:23:48;7.25;;;2.33;;
46815;SDS011;32787;53.316;8.670;2023-02-28T14:35:45;5.97;;;1.80;;
46815;SDS011;32787;53.316;8.670;2023-02-28T14:38:25;7.53;;;2.00;;
46815;SDS011;32787;53.316;8.670;2023-02-28T14:41:06;5.90;;;2.15;;
46815;SDS011;32787;53.316;8.670;2023-02-28T14:43:51;4.82;;;1.88;;
46815;SDS011;32787;53.316;8.670;2023-02-28T14:46:23;5.28;;;2.17;;
46815;SDS011;32787;53.316;8.670;2023-02-28T14:48:52;8.10;;;2.00;;
46815;SDS011;32787;53.316;8.670;2023-02-28T14:51:18;4.28;;;1.55;;
46815;SDS011;32787;53.316;8.670;2023-02-28T14:53:48;6.70;;;2.08;;
46815;SDS011;32787;53.316;8.670;2023-02-28T14:56:20;6.70;;;1.88;;
46815;SDS011;32787;53.316;8.670;2023-02-28T14:58:51;4.90;;;1.63;;
46815;SDS011;32787;53.316;8.670;2023-02-28T15:01:20;7.38;;;2.00;;
46815;SDS011;32787;53.316;8.670;2023-02-28T15:03:47;4.68;;;1.98;;
46815;SDS011;32787;53.316;8.670;2023-02-28T15:06:22;4.13;;;1.65;;
46815;SDS011;32787;53.316;8.670;2023-02-28T15:08:56;5.97;;;1.80;;
46815;SDS011;32787;53.316;8.670;2023-02-28T15:11:41;5.82;;;1.95;;
46815;SDS011;32787;53.316;8.670;2023-02-28T15:14:19;4.10;;;1.65;;
46815;SDS011;32787;53.316;8.670;2023-02-28T15:16:48;4.47;;;1.70;;
46815;SDS011;32787;53.316;8.670;2023-02-28T15:19:30;7.93;;;3.03;;
46815;SDS011;32787;53.316;8.670;2023-02-28T15:22:02;6.43;;;2.42;;
46815;SDS011;32787;53.316;8.670;2023-02-28T15:24:36;7.90;;;2.65;;
46815;SDS011;32787;53.316;8.670;2023-02-28T15:27:07;6.18;;;2.30;;
46815;SDS011;32787;53.316;8.670;2023-02-28T15:29:46;8.93;;;2.88;;
46815;SDS011;32787;53.316;8.670;2023-02-28T15:34:53;5.13;;;2.13;;
46815;SDS011;32787;53.316;8.670;2023-02-28T15:39:58;5.22;;;1.95;;
46815;SDS011;32787;53.316;8.670;2023-02-28T15:42:32;8.27;;;2.17;;
46815;SDS011;32787;53.316;8.670;2023-02-28T15:44:58;5.85;;;2.00;;
46815;SDS011;32787;53.316;8.670;2023-02-28T15:47:25;4.28;;;1.90;;
46815;SDS011;32787;53.316;8.670;2023-02-28T15:52:27;4.47;;;1.75;;
46815;SDS011;32787;53.316;8.670;2023-02-28T15:54:54;4.95;;;1.80;;
46815;SDS011;32787;53.316;8.670;2023-02-28T15:57:23;5.82;;;1.80;;
46815;SDS011;32787;53.316;8.670;2023-02-28T15:59:58;4.70;;;1.80;;
46815;SDS011;32787;53.316;8.670;2023-02-28T16:02:31;5.28;;;1.95;;
46815;SDS011;32787;53.316;8.670;2023-02-28T16:07:34;5.28;;;2.53;;
46815;SDS011;32787;53.316;8.670;2023-02-28T16:10:01;7.38;;;3.80;;
46815;SDS011;32787;53.316;8.670;2023-02-28T16:12:27;7.45;;;4.07;;
46815;SDS011;32787;53.316;8.670;2023-02-28T16:14:55;6.18;;;2.42;;
46815;SDS011;32787;53.316;8.670;2023-02-28T16:17:27;7.28;;;2.67;;
46815;SDS011;32787;53.316;8.670;2023-02-28T16:19:58;6.72;;;2.45;;
46815;SDS011;32787;53.316;8.670;2023-02-28T16:22:25;7.60;;;3.10;;
46815;SDS011;32787;53.316;8.670;2023-02-28T16:24:51;5.00;;;2.00;;
46815;SDS011;32787;53.316;8.670;2023-02-28T16:29:55;5.60;;;2.00;;
46815;SDS011;32787;53.316;8.670;2023-02-28T16:32:21;6.78;;;1.98;;
46815;SDS011;32787;53.316;8.670;2023-02-28T16:34:46;5.05;;;2.20;;
46815;SDS011;32787;53.316;8.670;2023-02-28T16:37:13;5.10;;;1.80;;
46815;SDS011;32787;53.316;8.670;2023-02-28T16:39:41;4.32;;;1.83;;
46815;SDS011;32787;53.316;8.670;2023-02-28T16:42:09;8.30;;;2.22;;
46815;SDS011;32787;53.316;8.670;2023-02-28T16:44:52;7.65;;;2.30;;
46815;SDS011;32787;53.316;8.670;2023-02-28T16:47:18;4.50;;;2.10;;
46815;SDS011;32787;53.316;8.670;2023-02-28T16:49:44;5.88;;;1.75;;
46815;SDS011;32787;53.316;8.670;2023-02-28T16:52:10;5.95;;;1.65;;
46815;SDS011;32787;53.316;8.670;2023-02-28T16:54:37;4.68;;;1.77;;
46815;SDS011;32787;53.316;8.670;2023-02-28T16:57:03;5.43;;;1.77;;
46815;SDS011;32787;53.316;8.670;2023-02-28T16:59:29;7.60;;;3.22;;
46815;SDS011;32787;53.316;8.670;2023-02-28T17:01:56;7.70;;;2.00;;
46815;SDS011;32787;53.316;8.670;2023-02-28T17:04:23;7.45;;;3.70;;
46815;SDS011;32787;53.316;8.670;2023-02-28T17:06:49;7.60;;;3.78;;
46815;SDS011;32787;53.316;8.670;2023-02-28T17:09:16;8.32;;;3.58;;
46815;SDS011;32787;53.316;8.670;2023-02-28T17:11:47;6.75;;;3.47;;
46815;SDS011;32787;53.316;8.670;2023-02-28T17:14:13;7.47;;;3.25;;
46815;SDS011;32787;53.316;8.670;2023-02-28T17:16:39;6.20;;;2.85;;
46815;SDS011;32787;53.316;8.670;2023-02-28T17:19:09;6.40;;;2.40;;
46815;SDS011;32787;53.316;8.670;2023-02-28T17:21:37;7.63;;;3.50;;
46815;SDS011;32787;53.316;8.670;2023-02-28T17:24:04;6.20;;;3.28;;
46815;SDS011;32787;53.316;8.670;2023-02-28T17:26:30;7.20;;;3.30;;
46815;SDS011;32787;53.316;8.670;2023-02-28T17:28:56;7.90;;;4.15;;
46815;SDS011;32787;53.316;8.670;2023-02-28T17:31:23;7.47;;;3.03;;
46815;SDS011;32787;53.316;8.670;2023-02-28T17:33:50;8.77;;;2.80;;
46815;SDS011;32787;53.316;8.670;2023-02-28T17:36:17;8.20;;;2.30;;
46815;SDS011;32787;53.316;8.670;2023-02-28T17:38:47;5.13;;;1.70;;
46815;SDS011;32787;53.316;8.670;2023-02-28T17:41:13;6.60;;;2.03;;
46815;SDS011;32787;53.316;8.670;2023-02-28T17:43:38;4.30;;;1.42;;
46815;SDS011;32787;53.316;8.670;2023-02-28T17:46:05;4.50;;;1.55;;
46815;SDS011;32787;53.316;8.670;2023-02-28T17:48:31;5.90;;;1.73;;
46815;SDS011;32787;53.316;8.670;2023-02-28T17:50:58;4.75;;;1.50;;